Time;durP1;ratioP1;P1;durP2;ratioP2;P2;SDS_P1;SDS_P2;PMS_P1;PMS_P2;Temp;Humidity;BMP_temperature;BMP_pressure;BME280_temperature;BME280_humidity;BME280_pressure;Samples;Min_cycle;Max_cycle;Signal;HPM_P1;HPM_P2
2022/08/10 00:00:20;;;;;;;3.58;2.17;;;;;;;;;;5041643;28;20034;-68
2022/08/10 00:02:54;;;;;;;8.27;2.42;;;;;;;;;;5042133;28;20033;-69
2022/08/10 00:05:20;;;;;;;5.70;2.17;;;;;;;;;;5047123;28;20039;-68
2022/08/10 00:07:47;;;;;;;3.28;2.40;;;;;;;;;;5047713;28;20036;-68
2022/08/10 00:10:14;;;;;;;4.35;2.40;;;;;;;;;;5033815;28;20034;-68
2022/08/10 00:12:40;;;;;;;3.60;2.25;;;;;;;;;;5045956;28;20052;-69
2022/08/10 00:15:06;;;;;;;4.28;2.30;;;;;;;;;;5045746;28;20118;-68
2022/08/10 00:17:32;;;;;;;3.72;2.22;;;;;;;;;;5036063;28;20029;-68
2022/08/10 00:19:57;;;;;;;4.45;2.50;;;;;;;;;;5035082;28;20044;-68
2022/08/10 00:22:23;;;;;;;5.28;2.45;;;;;;;;;;5045323;28;20053;-69
2022/08/10 00:24:48;;;;;;;4.20;2.40;;;;;;;;;;5052156;28;20462;-70
2022/08/10 00:27:14;;;;;;;5.05;2.60;;;;;;;;;;5047661;28;20040;-68
2022/08/10 00:29:39;;;;;;;4.45;2.80;;;;;;;;;;5034852;28;20040;-68
2022/08/10 00:32:04;;;;;;;8.02;2.80;;;;;;;;;;5041055;28;20122;-70
2022/08/10 00:34:31;;;;;;;5.28;2.63;;;;;;;;;;5049991;28;20064;-68
2022/08/10 00:36:57;;;;;;;4.78;2.90;;;;;;;;;;5036489;28;20044;-69
2022/08/10 00:39:23;;;;;;;5.05;2.65;;;;;;;;;;5043105;28;20029;-68
2022/08/10 00:41:49;;;;;;;7.40;2.80;;;;;;;;;;5032915;28;20025;-69
2022/08/10 00:44:14;;;;;;;6.57;2.92;;;;;;;;;;5040236;28;20025;-68
2022/08/10 00:46:39;;;;;;;5.05;3.00;;;;;;;;;;5047170;28;20055;-69
2022/08/10 00:49:05;;;;;;;5.07;3.00;;;;;;;;;;5043892;28;20466;-68
2022/08/10 00:51:30;;;;;;;4.30;2.53;;;;;;;;;;5036724;28;20037;-69
2022/08/10 00:53:56;;;;;;;4.10;2.97;;;;;;;;;;5048789;28;20043;-68
2022/08/10 00:56:21;;;;;;;6.10;2.80;;;;;;;;;;5053740;28;20043;-68
2022/08/10 00:58:47;;;;;;;5.28;3.05;;;;;;;;;;5041289;28;20060;-68
2022/08/10 01:01:13;;;;;;;7.07;3.38;;;;;;;;;;5037468;28;20054;-69
2022/08/10 01:03:38;;;;;;;5.65;2.90;;;;;;;;;;5039485;28;20433;-68
2022/08/10 01:06:27;;;;;;;5.03;3.22;;;;;;;;;;5047661;28;20060;-70
2022/08/10 01:09:24;;;;;;;4.88;3.15;;;;;;;;;;5037104;28;20049;-70
2022/08/10 01:12:05;;;;;;;4.60;3.08;;;;;;;;;;5049166;28;20440;-69
2022/08/10 01:15:32;;;;;;;5.35;3.10;;;;;;;;;;5037719;28;20445;-70
2022/08/10 01:18:05;;;;;;;5.32;3.25;;;;;;;;;;4996707;28;20064;-69
2022/08/10 01:20:36;;;;;;;4.60;2.95;;;;;;;;;;5038319;28;20596;-69
2022/08/10 01:23:17;;;;;;;4.85;3.20;;;;;;;;;;5030247;28;20070;-69
2022/08/10 01:25:57;;;;;;;5.53;3.33;;;;;;;;;;5043884;28;20091;-68
2022/08/10 01:28:45;;;;;;;5.32;3.20;;;;;;;;;;5049787;28;20048;-70
2022/08/10 01:31:15;;;;;;;5.05;3.08;;;;;;;;;;5039431;28;20043;-69
2022/08/10 01:33:48;;;;;;;7.80;3.65;;;;;;;;;;5034689;28;20414;-69
2022/08/10 01:36:18;;;;;;;5.57;3.20;;;;;;;;;;5049585;28;20091;-69
2022/08/10 01:38:47;;;;;;;4.55;3.40;;;;;;;;;;5051141;28;20033;-69
2022/08/10 01:41:28;;;;;;;7.40;3.35;;;;;;;;;;5033992;28;20088;-69
2022/08/10 01:44:09;;;;;;;6.88;3.50;;;;;;;;;;5038058;28;20079;-70
2022/08/10 01:46:36;;;;;;;;;;;;;;;;;;5038255;28;20455;-67
2022/08/10 01:49:07;;;;;;;5.93;3.42;;;;;;;;;;5032162;28;19912;-69
2022/08/10 01:51:39;;;;;;;6.60;3.30;;;;;;;;;;5035761;28;20396;-68
2022/08/10 01:54:11;;;;;;;4.93;3.45;;;;;;;;;;5022617;28;20484;-68
2022/08/10 01:56:41;;;;;;;5.15;3.45;;;;;;;;;;5038152;28;20053;-68
2022/08/10 01:59:10;;;;;;;5.55;3.50;;;;;;;;;;5030969;28;20405;-69
2022/08/10 02:01:44;;;;;;;5.45;3.38;;;;;;;;;;5031592;28;20520;-68
2022/08/10 02:04:11;;;;;;;4.80;3.55;;;;;;;;;;5030697;28;20061;-69
2022/08/10 02:06:44;;;;;;;4.75;3.20;;;;;;;;;;5013719;28;20038;-69
2022/08/10 02:09:13;;;;;;;5.22;3.40;;;;;;;;;;5029127;28;20044;-69
2022/08/10 02:11:39;;;;;;;4.50;3.25;;;;;;;;;;5030907;28;20029;-70
2022/08/10 02:14:06;;;;;;;4.40;2.97;;;;;;;;;;5031243;28;20026;-69
2022/08/10 02:16:33;;;;;;;6.93;3.60;;;;;;;;;;5032570;28;20060;-69
2022/08/10 02:19:00;;;;;;;7.18;3.50;;;;;;;;;;5031339;28;20040;-69
2022/08/10 02:21:28;;;;;;;5.32;3.75;;;;;;;;;;5032320;28;20099;-69
2022/08/10 02:23:54;;;;;;;5.30;3.58;;;;;;;;;;5031599;28;20419;-69
2022/08/10 02:26:19;;;;;;;5.22;3.50;;;;;;;;;;5032289;28;20087;-69
2022/08/10 02:28:45;;;;;;;5.15;3.42;;;;;;;;;;5029935;28;20432;-69
2022/08/10 02:31:15;;;;;;;5.35;3.80;;;;;;;;;;5028532;28;20025;-69
2022/08/10 02:33:45;;;;;;;5.30;3.75;;;;;;;;;;5030675;28;20033;-69
2022/08/10 02:36:11;;;;;;;5.65;3.50;;;;;;;;;;5031382;28;20047;-69
2022/08/10 02:38:49;;;;;;;8.25;3.45;;;;;;;;;;5029909;28;20398;-69
2022/08/10 02:41:23;;;;;;;9.00;3.90;;;;;;;;;;5028717;28;20037;-68
2022/08/10 02:43:53;;;;;;;8.98;3.63;;;;;;;;;;5030706;28;20037;-68
2022/08/10 02:46:27;;;;;;;4.63;3.47;;;;;;;;;;5029711;28;20068;-69
2022/08/10 02:49:04;;;;;;;5.45;3.47;;;;;;;;;;5031224;28;20033;-70
2022/08/10 02:51:40;;;;;;;5.55;3.50;;;;;;;;;;5027541;28;20112;-70
2022/08/10 02:54:14;;;;;;;6.65;3.50;;;;;;;;;;5030924;28;20033;-70
2022/08/10 02:57:00;;;;;;;7.25;3.80;;;;;;;;;;5031304;28;20106;-70
2022/08/10 02:59:32;;;;;;;6.50;3.67;;;;;;;;;;5038442;28;20512;-70
2022/08/10 03:02:01;;;;;;;4.93;3.38;;;;;;;;;;5048015;28;20487;-68
2022/08/10 03:04:43;;;;;;;8.05;4.18;;;;;;;;;;5058425;28;20111;-70
2022/08/10 03:07:11;;;;;;;5.57;3.90;;;;;;;;;;5042056;28;20458;-70
2022/08/10 03:09:39;;;;;;;5.45;3.58;;;;;;;;;;5044168;28;20159;-69
2022/08/10 03:12:07;;;;;;;7.55;3.47;;;;;;;;;;5036213;28;20037;-69
2022/08/10 03:14:36;;;;;;;7.63;4.07;;;;;;;;;;5039486;28;20038;-69
2022/08/10 03:17:03;;;;;;;5.05;3.90;;;;;;;;;;5031504;28;20037;-70
2022/08/10 03:19:31;;;;;;;6.57;3.95;;;;;;;;;;5035276;28;20123;-70
2022/08/10 03:21:57;;;;;;;7.10;3.90;;;;;;;;;;5035438;28;20153;-61
2022/08/10 03:24:25;;;;;;;7.13;4.32;;;;;;;;;;5037697;28;20060;-60
2022/08/10 03:26:55;;;;;;;5.85;3.90;;;;;;;;;;5045567;28;20444;-61
2022/08/10 03:29:22;;;;;;;6.68;4.10;;;;;;;;;;5033901;28;20477;-61
2022/08/10 03:31:48;;;;;;;6.75;4.20;;;;;;;;;;5047793;28;20037;-61
2022/08/10 03:34:16;;;;;;;7.38;4.15;;;;;;;;;;5031913;28;20047;-62
2022/08/10 03:36:42;;;;;;;6.40;3.85;;;;;;;;;;5041765;28;20033;-61
2022/08/10 03:39:08;;;;;;;5.50;4.03;;;;;;;;;;5049554;28;20025;-61
2022/08/10 03:41:37;;;;;;;6.70;4.05;;;;;;;;;;5034199;28;20041;-61
2022/08/10 03:44:04;;;;;;;6.97;4.35;;;;;;;;;;5044643;28;20021;-61
2022/08/10 03:46:32;;;;;;;7.13;4.35;;;;;;;;;;5039449;28;20044;-61
2022/08/10 03:49:01;;;;;;;5.50;4.18;;;;;;;;;;5050789;28;20041;-61
2022/08/10 03:51:26;;;;;;;7.38;4.22;;;;;;;;;;5050229;28;20033;-61
2022/08/10 03:53:53;;;;;;;5.38;4.07;;;;;;;;;;5035910;28;20033;-61
2022/08/10 03:56:19;;;;;;;6.47;4.57;;;;;;;;;;5030976;28;20072;-61
2022/08/10 03:58:46;;;;;;;5.07;3.97;;;;;;;;;;5032176;28;20052;-61
2022/08/10 04:01:13;;;;;;;7.50;4.55;;;;;;;;;;5039237;28;20036;-61
2022/08/10 04:03:38;;;;;;;6.20;4.22;;;;;;;;;;5029609;28;20394;-61
2022/08/10 04:06:04;;;;;;;5.60;4.30;;;;;;;;;;5044288;28;20029;-61
2022/08/10 04:08:30;;;;;;;8.50;4.43;;;;;;;;;;5046791;28;20371;-60
2022/08/10 04:10:55;;;;;;;6.80;4.40;;;;;;;;;;5043979;28;20033;-60
2022/08/10 04:13:21;;;;;;;7.35;5.00;;;;;;;;;;5050756;28;20025;-60
2022/08/10 04:15:47;;;;;;;7.30;4.50;;;;;;;;;;5032377;28;20049;-60
2022/08/10 04:18:12;;;;;;;7.28;4.60;;;;;;;;;;5041919;28;20355;-61
2022/08/10 04:20:44;;;;;;;6.60;4.45;;;;;;;;;;5033418;28;20079;-60
2022/08/10 04:23:20;;;;;;;8.63;4.68;;;;;;;;;;5050759;28;20025;-61
2022/08/10 04:25:46;;;;;;;6.63;4.63;;;;;;;;;;5050337;28;20048;-60
2022/08/10 04:28:11;;;;;;;7.40;4.20;;;;;;;;;;5030445;28;20470;-60
2022/08/10 04:30:39;;;;;;;9.75;4.55;;;;;;;;;;5013642;28;20030;-60
2022/08/10 04:33:07;;;;;;;7.55;4.65;;;;;;;;;;5030641;28;20057;-61
2022/08/10 04:35:33;;;;;;;8.43;4.55;;;;;;;;;;5028311;28;20037;-60
2022/08/10 04:38:00;;;;;;;5.95;4.22;;;;;;;;;;5033257;28;20075;-62
2022/08/10 04:40:26;;;;;;;6.43;4.40;;;;;;;;;;5038012;28;20030;-61
2022/08/10 04:42:52;;;;;;;6.22;4.10;;;;;;;;;;5035988;28;20402;-61
2022/08/10 04:45:18;;;;;;;6.30;4.47;;;;;;;;;;5033014;28;20489;-61
2022/08/10 04:47:43;;;;;;;8.10;4.60;;;;;;;;;;5042952;28;20036;-59
2022/08/10 04:50:09;;;;;;;6.90;4.68;;;;;;;;;;5049142;28;20041;-60
2022/08/10 04:52:34;;;;;;;8.02;5.00;;;;;;;;;;5048361;28;20033;-62
2022/08/10 04:55:00;;;;;;;6.85;4.65;;;;;;;;;;5031235;28;20049;-61
2022/08/10 04:57:25;;;;;;;8.80;4.88;;;;;;;;;;5036341;28;20057;-60
2022/08/10 04:59:51;;;;;;;8.25;4.85;;;;;;;;;;5051166;28;20056;-62
2022/08/10 05:02:16;;;;;;;7.13;4.93;;;;;;;;;;5042773;28;20029;-61
2022/08/10 05:04:41;;;;;;;9.02;4.63;;;;;;;;;;5045775;28;20025;-61
2022/08/10 05:07:13;;;;;;;6.90;4.63;;;;;;;;;;5040644;28;20026;-62
2022/08/10 05:09:39;;;;;;;9.85;4.60;;;;;;;;;;5047739;28;20040;-61
2022/08/10 05:12:06;;;;;;;8.23;4.82;;;;;;;;;;5053935;28;20029;-61
2022/08/10 05:14:32;;;;;;;6.40;4.43;;;;;;;;;;5051247;28;20033;-61
2022/08/10 05:16:57;;;;;;;7.78;4.43;;;;;;;;;;5036560;28;20359;-60
2022/08/10 05:19:23;;;;;;;8.38;4.80;;;;;;;;;;5037643;28;20037;-61
2022/08/10 05:21:48;;;;;;;7.25;4.63;;;;;;;;;;5053247;28;20035;-60
2022/08/10 05:24:13;;;;;;;7.15;4.47;;;;;;;;;;5052078;28;20057;-61
2022/08/10 05:26:39;;;;;;;7.18;4.35;;;;;;;;;;5048402;28;20104;-60
2022/08/10 05:29:04;;;;;;;8.68;4.47;;;;;;;;;;5045623;28;20130;-61
2022/08/10 05:31:30;;;;;;;9.20;4.95;;;;;;;;;;5035744;28;20068;-60
2022/08/10 05:33:56;;;;;;;7.47;4.47;;;;;;;;;;5051092;28;20036;-60
2022/08/10 05:36:21;;;;;;;6.07;4.35;;;;;;;;;;5035527;28;20454;-60
2022/08/10 05:38:48;;;;;;;7.32;4.60;;;;;;;;;;5034995;28;20036;-61
2022/08/10 05:41:15;;;;;;;8.30;4.97;;;;;;;;;;5044985;28;20025;-62
2022/08/10 05:43:41;;;;;;;6.40;4.45;;;;;;;;;;5046941;28;20059;-62
2022/08/10 05:46:06;;;;;;;6.80;4.45;;;;;;;;;;5037047;28;20128;-62
2022/08/10 05:48:33;;;;;;;5.90;4.40;;;;;;;;;;5052497;28;20113;-61
2022/08/10 05:50:59;;;;;;;7.20;4.53;;;;;;;;;;5053472;28;20063;-62
2022/08/10 05:53:24;;;;;;;7.63;4.43;;;;;;;;;;5049694;28;20087;-60
2022/08/10 05:55:50;;;;;;;7.30;4.60;;;;;;;;;;5033638;28;20034;-61
2022/08/10 05:58:15;;;;;;;9.73;4.70;;;;;;;;;;5032566;28;20053;-61
2022/08/10 06:00:45;;;;;;;7.43;4.40;;;;;;;;;;5051483;28;20512;-60
2022/08/10 06:03:14;;;;;;;8.48;4.25;;;;;;;;;;5052296;28;20505;-61
2022/08/10 06:05:42;;;;;;;7.78;4.70;;;;;;;;;;5034631;28;20036;-61
2022/08/10 06:08:16;;;;;;;6.53;4.40;;;;;;;;;;5049812;28;20033;-61
2022/08/10 06:10:43;;;;;;;6.88;4.35;;;;;;;;;;5034803;28;20032;-60
2022/08/10 06:15:55;;;;;;;6.15;4.28;;;;;;;;;;5046260;28;20090;-60
2022/08/10 06:18:22;;;;;;;7.78;3.92;;;;;;;;;;5034066;28;20037;-60
2022/08/10 06:20:49;;;;;;;8.70;4.25;;;;;;;;;;5033038;28;20057;-61
2022/08/10 06:23:15;;;;;;;8.30;4.22;;;;;;;;;;5032738;28;20580;-60
2022/08/10 06:25:41;;;;;;;5.20;3.80;;;;;;;;;;5033282;28;20037;-64
2022/08/10 06:28:10;;;;;;;8.80;4.13;;;;;;;;;;5036308;28;20043;-61
2022/08/10 06:30:38;;;;;;;8.85;4.03;;;;;;;;;;5047389;28;20029;-60
2022/08/10 06:33:05;;;;;;;6.30;3.92;;;;;;;;;;5033155;28;20026;-60
2022/08/10 06:35:32;;;;;;;7.97;4.18;;;;;;;;;;5049947;28;20361;-60
2022/08/10 06:38:01;;;;;;;6.57;4.25;;;;;;;;;;5037510;28;20465;-60
2022/08/10 06:40:28;;;;;;;7.80;4.35;;;;;;;;;;5033132;28;20033;-60
2022/08/10 06:42:55;;;;;;;7.60;4.13;;;;;;;;;;5036874;28;20037;-60
2022/08/10 06:45:24;;;;;;;7.28;4.18;;;;;;;;;;5038261;28;20043;-60
2022/08/10 06:47:59;;;;;;;6.50;4.00;;;;;;;;;;5033014;28;20084;-60
2022/08/10 06:50:39;;;;;;;8.90;3.92;;;;;;;;;;5045727;28;20053;-61
2022/08/10 06:53:11;;;;;;;6.45;3.65;;;;;;;;;;5032762;28;20021;-60
2022/08/10 06:55:41;;;;;;;12.07;4.32;;;;;;;;;;5047947;28;20032;-60
2022/08/10 06:58:07;;;;;;;6.97;3.90;;;;;;;;;;5031810;28;20091;-60
2022/08/10 07:00:37;;;;;;;9.70;3.78;;;;;;;;;;5048025;28;20029;-60
2022/08/10 07:03:08;;;;;;;5.35;3.40;;;;;;;;;;5051557;28;20116;-60
2022/08/10 07:05:36;;;;;;;8.00;3.67;;;;;;;;;;5050801;28;20135;-60
2022/08/10 07:08:02;;;;;;;6.55;3.65;;;;;;;;;;5050995;28;20425;-61
2022/08/10 07:10:28;;;;;;;6.80;3.47;;;;;;;;;;5050874;28;20120;-61
2022/08/10 07:12:56;;;;;;;5.78;3.50;;;;;;;;;;5052348;28;20032;-62
2022/08/10 07:15:24;;;;;;;9.27;3.58;;;;;;;;;;5036056;28;20040;-61
2022/08/10 07:17:51;;;;;;;6.53;3.47;;;;;;;;;;5051854;28;20116;-61
2022/08/10 07:20:18;;;;;;;5.20;3.47;;;;;;;;;;5037975;28;20390;-61
2022/08/10 07:22:46;;;;;;;8.15;3.22;;;;;;;;;;5032840;28;20112;-60
2022/08/10 07:25:17;;;;;;;5.10;3.13;;;;;;;;;;5033683;28;20033;-62
2022/08/10 07:27:43;;;;;;;6.78;3.42;;;;;;;;;;5039555;28;20041;-60
2022/08/10 07:30:09;;;;;;;5.28;3.38;;;;;;;;;;5047021;28;20056;-63
2022/08/10 07:32:36;;;;;;;5.95;3.05;;;;;;;;;;5044532;28;20473;-61
2022/08/10 07:35:02;;;;;;;8.82;3.38;;;;;;;;;;5042849;28;20488;-61
2022/08/10 07:37:30;;;;;;;5.78;3.00;;;;;;;;;;5037823;28;20033;-61
2022/08/10 07:39:56;;;;;;;6.50;3.10;;;;;;;;;;5050638;28;20067;-61
2022/08/10 07:42:24;;;;;;;11.88;3.50;;;;;;;;;;5048673;28;20116;-61
2022/08/10 07:44:49;;;;;;;11.88;3.60;;;;;;;;;;5040829;28;20041;-61
2022/08/10 07:47:27;;;;;;;6.25;2.97;;;;;;;;;;5030644;28;20112;-61
2022/08/10 07:49:55;;;;;;;6.53;2.88;;;;;;;;;;5020175;28;20025;-60
2022/08/10 07:52:21;;;;;;;7.43;3.33;;;;;;;;;;5049445;28;20041;-60
2022/08/10 07:54:49;;;;;;;5.53;3.03;;;;;;;;;;5050651;28;20037;-61
2022/08/10 07:57:22;;;;;;;5.68;2.90;;;;;;;;;;5050202;28;20103;-61
2022/08/10 07:59:54;;;;;;;7.20;3.33;;;;;;;;;;5045977;28;20032;-61
2022/08/10 08:02:28;;;;;;;8.88;3.17;;;;;;;;;;5034543;28;20029;-61
2022/08/10 08:04:57;;;;;;;7.15;2.95;;;;;;;;;;5050598;28;20043;-61
2022/08/10 08:07:22;;;;;;;5.68;3.28;;;;;;;;;;5050638;28;20045;-61
2022/08/10 08:09:49;;;;;;;9.23;3.80;;;;;;;;;;5050484;28;20083;-61
2022/08/10 08:12:15;;;;;;;9.13;3.20;;;;;;;;;;5048137;28;20429;-61
2022/08/10 08:14:42;;;;;;;4.45;3.10;;;;;;;;;;5035879;28;20044;-61
2022/08/10 08:17:09;;;;;;;9.57;3.45;;;;;;;;;;5031686;28;20033;-60
2022/08/10 08:19:36;;;;;;;5.70;2.95;;;;;;;;;;5030718;28;20164;-61
2022/08/10 08:22:02;;;;;;;6.13;3.20;;;;;;;;;;5049154;28;20029;-61
2022/08/10 08:24:30;;;;;;;7.38;3.10;;;;;;;;;;5050923;28;20453;-61
2022/08/10 08:26:57;;;;;;;6.20;3.00;;;;;;;;;;5051436;28;20025;-60
2022/08/10 08:29:24;;;;;;;6.38;2.88;;;;;;;;;;5035193;28;20211;-61
2022/08/10 08:31:51;;;;;;;7.55;2.95;;;;;;;;;;5035128;28;20123;-61
2022/08/10 08:34:17;;;;;;;6.68;2.92;;;;;;;;;;5031686;28;20118;-61
2022/08/10 08:36:43;;;;;;;5.25;2.90;;;;;;;;;;5031234;28;20030;-60
2022/08/10 08:39:11;;;;;;;9.85;3.00;;;;;;;;;;5035383;28;20029;-61
2022/08/10 08:42:18;;;;;;;6.90;2.90;;;;;;;;;;5040618;28;20504;-61
2022/08/10 08:45:14;;;;;;;6.65;2.80;;;;;;;;;;5035710;28;20132;-61
2022/08/10 08:48:04;;;;;;;5.85;2.70;;;;;;;;;;5054219;28;20068;-61
2022/08/10 08:50:54;;;;;;;10.20;3.30;;;;;;;;;;5038361;28;20064;-61
2022/08/10 08:53:42;;;;;;;6.05;2.60;;;;;;;;;;5033887;28;20106;-61
2022/08/10 08:56:17;;;;;;;5.88;2.50;;;;;;;;;;5034115;28;20064;-61
2022/08/10 08:58:54;;;;;;;5.20;2.70;;;;;;;;;;5050226;28;20044;-61
2022/08/10 09:01:34;;;;;;;6.78;2.70;;;;;;;;;;5048530;28;20112;-61
2022/08/10 09:04:43;;;;;;;5.93;2.78;;;;;;;;;;5035106;28;20398;-62
2022/08/10 09:07:21;;;;;;;8.02;2.50;;;;;;;;;;5035371;28;20416;-61
2022/08/10 09:10:03;;;;;;;4.53;2.53;;;;;;;;;;5053702;28;20037;-60
2022/08/10 09:12:47;;;;;;;5.90;2.85;;;;;;;;;;5051578;28;20029;-61
2022/08/10 09:15:22;;;;;;;5.10;2.65;;;;;;;;;;5041808;28;20095;-61
2022/08/10 09:18:01;;;;;;;8.55;3.00;;;;;;;;;;5034967;28;20443;-61
2022/08/10 09:20:44;;;;;;;7.72;2.80;;;;;;;;;;5034234;28;20433;-61
2022/08/10 09:23:23;;;;;;;5.05;2.75;;;;;;;;;;5037258;28;20030;-61
2022/08/10 09:25:59;;;;;;;7.97;2.58;;;;;;;;;;5047349;28;20041;-61
2022/08/10 09:28:26;;;;;;;6.32;2.70;;;;;;;;;;5034853;28;20367;-61
2022/08/10 09:31:04;;;;;;;4.88;2.70;;;;;;;;;;5038609;28;20091;-61
2022/08/10 09:34:05;;;;;;;4.70;2.88;;;;;;;;;;5036850;28;20103;-61
2022/08/10 09:36:51;;;;;;;10.43;2.70;;;;;;;;;;5026320;28;20053;-61
2022/08/10 09:39:26;;;;;;;6.07;2.90;;;;;;;;;;5035613;28;20342;-61
2022/08/10 09:42:12;;;;;;;5.00;2.63;;;;;;;;;;5045005;28;20033;-61
2022/08/10 09:44:42;;;;;;;5.15;2.90;;;;;;;;;;5051272;28;20029;-61
2022/08/10 09:47:31;;;;;;;5.40;2.70;;;;;;;;;;5045087;28;20034;-61
2022/08/10 09:50:18;;;;;;;3.80;2.70;;;;;;;;;;5035180;28;20040;-61
2022/08/10 09:53:04;;;;;;;6.63;3.13;;;;;;;;;;5032616;28;20062;-61
2022/08/10 09:55:42;;;;;;;9.18;3.10;;;;;;;;;;5036917;28;20116;-61
2022/08/10 09:58:16;;;;;;;5.35;2.90;;;;;;;;;;5033672;28;20100;-61
2022/08/10 10:00:50;;;;;;;3.50;2.60;;;;;;;;;;5040829;28;20686;-60
2022/08/10 10:03:28;;;;;;;6.68;3.00;;;;;;;;;;5027317;28;20098;-60
2022/08/10 10:06:15;;;;;;;5.03;2.63;;;;;;;;;;5034476;28;20454;-60
2022/08/10 10:08:57;;;;;;;5.78;3.00;;;;;;;;;;5043029;28;20511;-62
2022/08/10 10:11:44;;;;;;;4.75;3.00;;;;;;;;;;5039877;28;20033;-61
2022/08/10 10:14:24;;;;;;;5.22;2.90;;;;;;;;;;5037302;28;20068;-62
2022/08/10 10:17:02;;;;;;;;;;;;;;;;;;5032783;28;20021;-59
2022/08/10 10:19:39;;;;;;;5.40;2.60;;;;;;;;;;5032076;28;19924;-61
2022/08/10 10:22:50;;;;;;;11.00;3.13;;;;;;;;;;5052343;28;20033;-61
2022/08/10 10:25:34;;;;;;;7.35;2.70;;;;;;;;;;5038718;28;20047;-60
2022/08/10 10:28:17;;;;;;;4.93;2.88;;;;;;;;;;5053344;28;20035;-61
2022/08/10 10:31:05;;;;;;;6.20;2.70;;;;;;;;;;5028933;28;20033;-62
2022/08/10 10:33:53;;;;;;;4.72;3.00;;;;;;;;;;5041971;28;20043;-61
2022/08/10 10:36:20;;;;;;;5.40;2.83;;;;;;;;;;5019615;28;20045;-60
2022/08/10 10:38:47;;;;;;;4.40;2.60;;;;;;;;;;5033670;28;20563;-61
2022/08/10 10:42:00;;;;;;;4.13;2.65;;;;;;;;;;5038825;28;20061;-61
2022/08/10 10:44:40;;;;;;;7.28;3.08;;;;;;;;;;4988050;28;20089;-62
2022/08/10 10:47:47;;;;;;;5.10;2.60;;;;;;;;;;5028088;28;20093;-61
2022/08/10 10:50:33;;;;;;;3.97;2.50;;;;;;;;;;5046117;28;20048;-61
2022/08/10 10:53:21;;;;;;;4.20;2.30;;;;;;;;;;5032608;28;20032;-61
2022/08/10 10:55:54;;;;;;;4.10;2.47;;;;;;;;;;5032923;28;20497;-61
2022/08/10 10:58:22;;;;;;;4.85;2.45;;;;;;;;;;5032262;28;20042;-61
2022/08/10 11:01:26;;;;;;;5.57;2.40;;;;;;;;;;5035652;28;20034;-61
2022/08/10 11:03:52;;;;;;;5.30;2.40;;;;;;;;;;5027457;28;20071;-61
2022/08/10 11:06:30;;;;;;;4.88;2.55;;;;;;;;;;5036943;28;20371;-61
2022/08/10 11:09:01;;;;;;;5.55;2.22;;;;;;;;;;5013768;28;20060;-60
2022/08/10 11:11:33;;;;;;;4.93;2.10;;;;;;;;;;5032037;28;20466;-61
2022/08/10 11:14:20;;;;;;;3.47;2.20;;;;;;;;;;5043836;28;20448;-61
2022/08/10 11:17:13;;;;;;;9.68;2.20;;;;;;;;;;5050291;28;20024;-61
2022/08/10 11:19:51;;;;;;;2.42;2.00;;;;;;;;;;5031640;28;20029;-61
2022/08/10 11:22:39;;;;;;;4.50;2.10;;;;;;;;;;5037736;28;20033;-61
2022/08/10 11:25:05;;;;;;;4.00;2.00;;;;;;;;;;5031689;28;20120;-61
2022/08/10 11:27:35;;;;;;;3.35;2.13;;;;;;;;;;5031275;28;20038;-61
2022/08/10 11:30:06;;;;;;;7.10;2.30;;;;;;;;;;5042297;28;20037;-62
2022/08/10 11:32:53;;;;;;;7.88;2.20;;;;;;;;;;5037780;28;20029;-63
2022/08/10 11:35:43;;;;;;;5.22;2.10;;;;;;;;;;5032819;28;20032;-61
2022/08/10 11:38:14;;;;;;;;;;;;;;;;;;5044939;28;20106;-61
2022/08/10 11:40:44;;;;;;;6.80;1.90;;;;;;;;;;5035839;28;20021;-62
2022/08/10 11:43:18;;;;;;;4.75;2.20;;;;;;;;;;5045135;28;20034;-61
2022/08/10 11:45:50;;;;;;;1.95;1.70;;;;;;;;;;5042751;28;20124;-61
2022/08/10 11:48:45;;;;;;;6.38;2.00;;;;;;;;;;5049857;28;20037;-63
2022/08/10 11:51:51;;;;;;;6.22;2.10;;;;;;;;;;5035369;28;20037;-62
2022/08/10 11:54:29;;;;;;;3.30;2.08;;;;;;;;;;5035550;28;20095;-62
2022/08/10 11:56:57;;;;;;;3.47;1.90;;;;;;;;;;5049234;28;20041;-61
2022/08/10 12:02:12;;;;;;;8.98;2.03;;;;;;;;;;5012251;28;20075;-61
2022/08/10 12:04:40;;;;;;;5.47;2.08;;;;;;;;;;5012115;28;20112;-61
2022/08/10 12:07:08;;;;;;;3.70;1.90;;;;;;;;;;5031592;28;20410;-62
2022/08/10 12:09:34;;;;;;;4.78;2.13;;;;;;;;;;5021322;28;20375;-61
2022/08/10 12:12:00;;;;;;;5.63;1.83;;;;;;;;;;5011346;28;20092;-61
2022/08/10 12:14:37;;;;;;;6.55;2.17;;;;;;;;;;5012041;28;20026;-61
2022/08/10 12:17:07;;;;;;;4.65;2.10;;;;;;;;;;5027508;28;20386;-61
2022/08/10 12:19:42;;;;;;;5.38;2.42;;;;;;;;;;5031946;28;20037;-62
2022/08/10 12:22:20;;;;;;;4.85;2.03;;;;;;;;;;5035641;28;20076;-61
2022/08/10 12:24:56;;;;;;;5.22;1.83;;;;;;;;;;5017770;28;20022;-62
2022/08/10 12:27:30;;;;;;;2.50;1.80;;;;;;;;;;5025416;28;20034;-61
2022/08/10 12:30:04;;;;;;;2.25;1.85;;;;;;;;;;5033583;28;20041;-61
2022/08/10 12:32:59;;;;;;;3.08;2.10;;;;;;;;;;5025595;28;20112;-63
2022/08/10 12:35:47;;;;;;;1.70;1.60;;;;;;;;;;5011193;28;20072;-63
2022/08/10 12:38:36;;;;;;;2.38;1.70;;;;;;;;;;5005209;28;20042;-62
2022/08/10 12:41:13;;;;;;;2.15;1.90;;;;;;;;;;5020462;28;20131;-62
2022/08/10 12:43:45;;;;;;;6.10;1.92;;;;;;;;;;5031644;28;20481;-62
2022/08/10 12:46:18;;;;;;;2.10;1.77;;;;;;;;;;5033831;28;20106;-61
2022/08/10 12:49:08;;;;;;;3.15;2.00;;;;;;;;;;5028544;28;20108;-62
2022/08/10 12:51:34;;;;;;;;;;;;;;;;;;5029983;28;20099;-62
2022/08/10 12:54:10;;;;;;;3.80;1.90;;;;;;;;;;5023951;28;19909;-62
2022/08/10 12:56:39;;;;;;;3.05;1.95;;;;;;;;;;5027414;28;20029;-62
2022/08/10 12:59:05;;;;;;;2.15;1.77;;;;;;;;;;5047127;28;20040;-62
2022/08/10 13:01:33;;;;;;;2.35;1.83;;;;;;;;;;5041352;28;20116;-64
2022/08/10 13:04:07;;;;;;;3.60;1.80;;;;;;;;;;5043496;28;20047;-62
2022/08/10 13:06:35;;;;;;;3.33;1.88;;;;;;;;;;5036604;28;20040;-61
2022/08/10 13:09:11;;;;;;;3.80;1.83;;;;;;;;;;5034780;28;20041;-62
2022/08/10 13:11:46;;;;;;;2.53;1.70;;;;;;;;;;5050904;28;20039;-62
2022/08/10 13:14:19;;;;;;;5.68;1.60;;;;;;;;;;5051839;28;20424;-62
2022/08/10 13:16:47;;;;;;;2.78;1.70;;;;;;;;;;5050255;28;20060;-62
2022/08/10 13:19:15;;;;;;;4.90;1.80;;;;;;;;;;5034479;28;20048;-61
2022/08/10 13:21:42;;;;;;;2.55;1.77;;;;;;;;;;5037845;28;20151;-63
2022/08/10 13:24:14;;;;;;;4.22;1.83;;;;;;;;;;5034395;28;20044;-62
2022/08/10 13:26:47;;;;;;;4.00;1.88;;;;;;;;;;5049630;28;20045;-63
2022/08/10 13:29:16;;;;;;;5.82;1.67;;;;;;;;;;5048651;28;20447;-61
2022/08/10 13:31:44;;;;;;;1.77;1.65;;;;;;;;;;5037429;28;20044;-62
2022/08/10 13:34:18;;;;;;;3.35;1.70;;;;;;;;;;5045427;28;20132;-63
2022/08/10 13:36:47;;;;;;;4.05;1.70;;;;;;;;;;5037083;28;20035;-62
2022/08/10 13:39:18;;;;;;;4.78;1.67;;;;;;;;;;5040920;28;20025;-63
2022/08/10 13:41:46;;;;;;;2.63;1.60;;;;;;;;;;5032906;28;20048;-62
2022/08/10 13:44:18;;;;;;;5.53;1.90;;;;;;;;;;5033563;28;20033;-62
2022/08/10 13:46:49;;;;;;;2.55;1.70;;;;;;;;;;5050417;28;20364;-63
2022/08/10 13:49:17;;;;;;;2.83;1.75;;;;;;;;;;5053696;28;20169;-62
2022/08/10 13:51:45;;;;;;;2.83;1.60;;;;;;;;;;5050451;28;20389;-63
2022/08/10 13:54:12;;;;;;;3.47;1.60;;;;;;;;;;5053497;28;20028;-62
2022/08/10 13:56:41;;;;;;;10.93;1.90;;;;;;;;;;5051097;28;20150;-63
2022/08/10 13:59:08;;;;;;;3.20;1.70;;;;;;;;;;5053476;28;20056;-62
2022/08/10 14:01:35;;;;;;;2.15;1.60;;;;;;;;;;5045213;28;20120;-63
2022/08/10 14:04:01;;;;;;;2.63;1.80;;;;;;;;;;5032591;28;20033;-63
2022/08/10 14:06:28;;;;;;;4.03;1.60;;;;;;;;;;5028922;28;20120;-62
2022/08/10 14:09:00;;;;;;;3.78;1.70;;;;;;;;;;5052596;28;20029;-62
2022/08/10 14:11:27;;;;;;;5.70;1.70;;;;;;;;;;5040278;28;20033;-62
2022/08/10 14:13:59;;;;;;;3.92;1.80;;;;;;;;;;5039787;28;20048;-62
2022/08/10 14:16:25;;;;;;;2.70;1.60;;;;;;;;;;5032907;28;20064;-62
2022/08/10 14:18:58;;;;;;;3.53;1.60;;;;;;;;;;5032547;28;20036;-63
2022/08/10 14:21:24;;;;;;;1.95;1.50;;;;;;;;;;5037257;28;20035;-62
2022/08/10 14:23:50;;;;;;;5.28;1.73;;;;;;;;;;5052012;28;20021;-62
2022/08/10 14:26:34;;;;;;;5.57;1.90;;;;;;;;;;5051921;28;20094;-62
2022/08/10 14:29:09;;;;;;;3.00;1.65;;;;;;;;;;5051202;28;20029;-62
2022/08/10 14:31:36;;;;;;;3.83;1.50;;;;;;;;;;5046648;28;20039;-63
2022/08/10 14:34:04;;;;;;;5.47;1.85;;;;;;;;;;5043078;28;20176;-64
2022/08/10 14:36:37;;;;;;;4.13;1.80;;;;;;;;;;5039864;28;20041;-62
2022/08/10 14:39:04;;;;;;;4.82;1.70;;;;;;;;;;5037767;28;20037;-62
2022/08/10 14:41:31;;;;;;;5.10;1.92;;;;;;;;;;5051944;28;20029;-62
2022/08/10 14:44:04;;;;;;;4.70;1.90;;;;;;;;;;5034834;28;20635;-62
2022/08/10 14:46:32;;;;;;;2.22;1.70;;;;;;;;;;5036785;28;20029;-62
2022/08/10 14:48:59;;;;;;;5.82;1.60;;;;;;;;;;5050848;28;20175;-63
2022/08/10 14:51:28;;;;;;;3.90;1.77;;;;;;;;;;5051395;28;20057;-62
2022/08/10 14:53:58;;;;;;;5.80;2.00;;;;;;;;;;5051584;28;20036;-64
2022/08/10 14:56:31;;;;;;;3.47;1.80;;;;;;;;;;5051603;28;20124;-62
2022/08/10 14:59:03;;;;;;;2.85;1.83;;;;;;;;;;5047572;28;20132;-63
2022/08/10 15:01:29;;;;;;;2.50;1.80;;;;;;;;;;5041897;28;20041;-62
2022/08/10 15:04:07;;;;;;;4.38;1.80;;;;;;;;;;5051536;28;20397;-62
2022/08/10 15:06:46;;;;;;;3.55;1.77;;;;;;;;;;5050404;28;20033;-62
2022/08/10 15:09:15;;;;;;;2.92;1.80;;;;;;;;;;5052319;28;20040;-62
2022/08/10 15:11:41;;;;;;;5.47;2.00;;;;;;;;;;5050771;28;20512;-63
2022/08/10 15:14:07;;;;;;;5.78;1.80;;;;;;;;;;5052037;28;20021;-63
2022/08/10 15:16:35;;;;;;;2.75;1.80;;;;;;;;;;5043840;28;20389;-63